Terminal Aerodrome Forecast
Issued by NWS Rapid City, SD

Home | Current Version | Previous Version | Text Only | Print | Product List | Glossary On
Versions: 1 2 3 4 5 6 7 8 9 10 11 12 13 14 15
000
FTUS43 KUNR 021100
TAFRAP
TAF
KRAP 021120Z 0212/0312 16015KT P6SM BKN150
     FM022200 16010KT P6SM OVC040
     FM030100 VRB05KT 3SM -SN BR OVC015
     FM030300 35025G40KT 1/2SM SN OVC004=

USA.gov is the U.S. government's official web portal to all federal, state and local government web resources and services.